sensor_id;sensor_type;location;lat;lon;timestamp;pressure;altitude;pressure_sealevel;temperature;humidity
56668;BME280;42542;48.360;10.958;2023-02-10T00:01:54;97886.28;;;-4.72;88.81
56668;BME280;42542;48.360;10.958;2023-02-10T00:04:56;97880.28;;;-4.77;88.63
56668;BME280;42542;48.360;10.958;2023-02-10T00:07:57;97889.03;;;-4.79;88.57
56668;BME280;42542;48.360;10.958;2023-02-10T00:11:01;97891.63;;;-4.79;88.51
56668;BME280;42542;48.360;10.958;2023-02-10T00:14:03;97894.28;;;-4.82;88.98
56668;BME280;42542;48.360;10.958;2023-02-10T00:17:05;97908.25;;;-4.85;88.72
56668;BME280;42542;48.360;10.958;2023-02-10T00:20:07;97899.63;;;-4.90;88.89
56668;BME280;42542;48.360;10.958;2023-02-10T00:23:09;97903.09;;;-4.89;88.78
56668;BME280;42542;48.360;10.958;2023-02-10T00:26:12;97900.56;;;-4.92;88.65
56668;BME280;42542;48.360;10.958;2023-02-10T00:29:17;97898.88;;;-4.96;88.63
56668;BME280;42542;48.360;10.958;2023-02-10T00:32:18;97903.22;;;-4.97;89.05
56668;BME280;42542;48.360;10.958;2023-02-10T00:35:20;97898.09;;;-5.00;89.17
56668;BME280;42542;48.360;10.958;2023-02-10T00:38:22;97909.31;;;-4.96;89.66
56668;BME280;42542;48.360;10.958;2023-02-10T00:41:24;97914.53;;;-4.96;89.83
56668;BME280;42542;48.360;10.958;2023-02-10T00:44:25;97913.72;;;-4.98;89.58
56668;BME280;42542;48.360;10.958;2023-02-10T00:47:27;97923.25;;;-4.97;90.18
56668;BME280;42542;48.360;10.958;2023-02-10T00:50:28;97924.09;;;-4.97;90.08
56668;BME280;42542;48.360;10.958;2023-02-10T00:53:30;97925.00;;;-4.98;89.53
56668;BME280;42542;48.360;10.958;2023-02-10T00:56:32;97931.97;;;-4.98;89.70
56668;BME280;42542;48.360;10.958;2023-02-10T00:59:34;97940.69;;;-5.01;89.63
56668;BME280;42542;48.360;10.958;2023-02-10T01:02:35;97933.81;;;-5.05;89.88
56668;BME280;42542;48.360;10.958;2023-02-10T01:05:37;97944.28;;;-5.06;89.36
56668;BME280;42542;48.360;10.958;2023-02-10T01:08:38;97940.06;;;-5.15;89.25
56668;BME280;42542;48.360;10.958;2023-02-10T01:11:40;97953.06;;;-5.12;89.11
56668;BME280;42542;48.360;10.958;2023-02-10T01:14:42;97946.13;;;-5.13;88.92
56668;BME280;42542;48.360;10.958;2023-02-10T01:17:44;97945.28;;;-5.17;88.94
56668;BME280;42542;48.360;10.958;2023-02-10T01:20:46;97944.50;;;-5.20;88.87
56668;BME280;42542;48.360;10.958;2023-02-10T01:23:48;97952.34;;;-5.23;88.82
56668;BME280;42542;48.360;10.958;2023-02-10T01:26:49;97954.97;;;-5.25;88.57
56668;BME280;42542;48.360;10.958;2023-02-10T01:29:51;97955.03;;;-5.26;88.61
56668;BME280;42542;48.360;10.958;2023-02-10T01:32:53;97955.94;;;-5.30;88.54
56668;BME280;42542;48.360;10.958;2023-02-10T01:35:55;97950.78;;;-5.33;88.44
56668;BME280;42542;48.360;10.958;2023-02-10T01:38:57;97955.16;;;-5.37;88.50
56668;BME280;42542;48.360;10.958;2023-02-10T01:41:58;97946.56;;;-5.40;88.53
56668;BME280;42542;48.360;10.958;2023-02-10T01:48:14;97964.84;;;-5.45;88.42
56668;BME280;42542;48.360;10.958;2023-02-10T01:51:18;97963.19;;;-5.51;88.36
56668;BME280;42542;48.360;10.958;2023-02-10T01:54:33;97963.28;;;-5.55;88.26
56668;BME280;42542;48.360;10.958;2023-02-10T01:57:40;97961.50;;;-5.55;88.44
56668;BME280;42542;48.360;10.958;2023-02-10T02:00:43;97955.47;;;-5.55;88.40
56668;BME280;42542;48.360;10.958;2023-02-10T02:03:45;97951.13;;;-5.58;88.42
56668;BME280;42542;48.360;10.958;2023-02-10T02:06:47;97947.69;;;-5.60;88.39
56668;BME280;42542;48.360;10.958;2023-02-10T02:09:51;97958.13;;;-5.61;88.68
56668;BME280;42542;48.360;10.958;2023-02-10T02:13:00;97960.72;;;-5.61;89.16
56668;BME280;42542;48.360;10.958;2023-02-10T02:29:28;97946.16;;;-5.73;88.31
56668;BME280;42542;48.360;10.958;2023-02-10T02:32:37;97941.88;;;-5.77;88.73
56668;BME280;42542;48.360;10.958;2023-02-10T02:36:09;97947.97;;;-5.78;88.74
56668;BME280;42542;48.360;10.958;2023-02-10T02:39:13;97941.13;;;-5.85;88.50
56668;BME280;42542;48.360;10.958;2023-02-10T02:42:19;97957.56;;;-5.83;88.68
56668;BME280;42542;48.360;10.958;2023-02-10T02:49:02;97957.66;;;-5.87;88.91
56668;BME280;42542;48.360;10.958;2023-02-10T02:52:14;97953.34;;;-5.90;89.12
56668;BME280;42542;48.360;10.958;2023-02-10T02:55:48;97949.88;;;-5.91;88.82
56668;BME280;42542;48.360;10.958;2023-02-10T02:59:08;97949.06;;;-5.93;88.75
56668;BME280;42542;48.360;10.958;2023-02-10T03:02:14;97946.47;;;-5.94;89.25
56668;BME280;42542;48.360;10.958;2023-02-10T03:05:19;97941.25;;;-5.94;89.34
56668;BME280;42542;48.360;10.958;2023-02-10T03:08:22;97931.72;;;-5.97;89.46
56668;BME280;42542;48.360;10.958;2023-02-10T03:11:26;97936.16;;;-6.02;89.35
56668;BME280;42542;48.360;10.958;2023-02-10T03:14:28;97954.31;;;-5.97;89.52
56668;BME280;42542;48.360;10.958;2023-02-10T03:17:29;97947.34;;;-5.97;89.61
56668;BME280;42542;48.360;10.958;2023-02-10T03:20:31;97961.22;;;-5.96;89.63
56668;BME280;42542;48.360;10.958;2023-02-10T03:23:32;97953.44;;;-5.96;89.69
56668;BME280;42542;48.360;10.958;2023-02-10T03:26:35;97950.84;;;-5.98;89.55
56668;BME280;42542;48.360;10.958;2023-02-10T03:29:37;97937.00;;;-6.01;90.02
56668;BME280;42542;48.360;10.958;2023-02-10T03:32:38;97940.47;;;-5.99;89.61
56668;BME280;42542;48.360;10.958;2023-02-10T03:35:42;97945.63;;;-5.98;89.92
56668;BME280;42542;48.360;10.958;2023-02-10T03:38:43;97938.75;;;-6.02;89.86
56668;BME280;42542;48.360;10.958;2023-02-10T03:41:46;97953.47;;;-5.99;90.13
56668;BME280;42542;48.360;10.958;2023-02-10T03:44:48;97952.63;;;-6.00;90.03
56668;BME280;42542;48.360;10.958;2023-02-10T03:47:49;97958.69;;;-5.99;90.03
56668;BME280;42542;48.360;10.958;2023-02-10T03:50:51;97969.13;;;-6.04;89.74
56668;BME280;42542;48.360;10.958;2023-02-10T03:53:52;97982.13;;;-6.01;89.93
56668;BME280;42542;48.360;10.958;2023-02-10T03:56:54;97982.13;;;-6.02;89.62
56668;BME280;42542;48.360;10.958;2023-02-10T03:59:56;97996.88;;;-6.01;89.81
56668;BME280;42542;48.360;10.958;2023-02-10T04:02:57;97992.56;;;-6.04;89.69
56668;BME280;42542;48.360;10.958;2023-02-10T04:05:59;97995.22;;;-6.05;89.76
56668;BME280;42542;48.360;10.958;2023-02-10T04:09:01;98003.03;;;-6.05;89.74
56668;BME280;42542;48.360;10.958;2023-02-10T04:12:02;98002.19;;;-6.12;89.71
56668;BME280;42542;48.360;10.958;2023-02-10T04:15:05;98005.66;;;-6.10;89.62
56668;BME280;42542;48.360;10.958;2023-02-10T04:18:07;98004.81;;;-6.12;89.63
56668;BME280;42542;48.360;10.958;2023-02-10T04:21:11;98004.84;;;-6.15;89.44
56668;BME280;42542;48.360;10.958;2023-02-10T04:24:12;98011.81;;;-6.17;88.74
56668;BME280;42542;48.360;10.958;2023-02-10T04:27:14;98010.97;;;-6.19;88.78
56668;BME280;42542;48.360;10.958;2023-02-10T04:30:16;98020.53;;;-6.21;88.53
56668;BME280;42542;48.360;10.958;2023-02-10T04:33:18;98010.16;;;-6.22;88.69
56668;BME280;42542;48.360;10.958;2023-02-10T04:36:19;98011.03;;;-6.25;88.63
56668;BME280;42542;48.360;10.958;2023-02-10T04:39:21;98011.06;;;-6.28;88.60
56668;BME280;42542;48.360;10.958;2023-02-10T04:42:23;98011.97;;;-6.31;88.58
56668;BME280;42542;48.360;10.958;2023-02-10T04:45:31;98018.09;;;-6.35;88.32
56668;BME280;42542;48.360;10.958;2023-02-10T04:48:33;98022.44;;;-6.37;88.18
56668;BME280;42542;48.360;10.958;2023-02-10T04:51:35;98034.59;;;-6.37;88.24
56668;BME280;42542;48.360;10.958;2023-02-10T04:54:37;98027.69;;;-6.41;88.42
56668;BME280;42542;48.360;10.958;2023-02-10T04:57:39;98019.91;;;-6.46;88.54
56668;BME280;42542;48.360;10.958;2023-02-10T05:00:40;98019.03;;;-6.45;88.35
56668;BME280;42542;48.360;10.958;2023-02-10T05:03:42;98032.91;;;-6.44;88.27
56668;BME280;42542;48.360;10.958;2023-02-10T05:06:43;98015.63;;;-6.48;88.62
56668;BME280;42542;48.360;10.958;2023-02-10T05:09:45;98013.91;;;-6.49;88.72
56668;BME280;42542;48.360;10.958;2023-02-10T05:12:47;98015.63;;;-6.48;89.07
56668;BME280;42542;48.360;10.958;2023-02-10T05:15:48;98026.84;;;-6.46;89.01
56668;BME280;42542;48.360;10.958;2023-02-10T05:18:50;98022.50;;;-6.44;89.41
56668;BME280;42542;48.360;10.958;2023-02-10T05:21:52;98025.13;;;-6.44;89.40
56668;BME280;42542;48.360;10.958;2023-02-10T05:24:53;98024.25;;;-6.43;89.70
56668;BME280;42542;48.360;10.958;2023-02-10T05:27:55;98020.78;;;-6.44;90.02
56668;BME280;42542;48.360;10.958;2023-02-10T05:30:57;98022.44;;;-6.40;90.36
56668;BME280;42542;48.360;10.958;2023-02-10T05:33:59;98025.91;;;-6.39;90.05
56668;BME280;42542;48.360;10.958;2023-02-10T05:37:00;98026.78;;;-6.40;89.91
56668;BME280;42542;48.360;10.958;2023-02-10T05:40:02;98032.00;;;-6.40;89.57
56668;BME280;42542;48.360;10.958;2023-02-10T05:43:04;98029.44;;;-6.42;89.66
56668;BME280;42542;48.360;10.958;2023-02-10T05:46:05;98038.13;;;-6.43;89.65
56668;BME280;42542;48.360;10.958;2023-02-10T05:49:07;98038.09;;;-6.41;89.15
56668;BME280;42542;48.360;10.958;2023-02-10T05:52:09;98035.50;;;-6.43;89.28
56668;BME280;42542;48.360;10.958;2023-02-10T05:55:10;98042.44;;;-6.43;88.94
56668;BME280;42542;48.360;10.958;2023-02-10T05:58:12;98051.13;;;-6.43;89.18
56668;BME280;42542;48.360;10.958;2023-02-10T06:01:14;98039.84;;;-6.43;89.19
56668;BME280;42542;48.360;10.958;2023-02-10T06:04:15;98038.13;;;-6.46;89.05
56668;BME280;42542;48.360;10.958;2023-02-10T06:07:17;98061.53;;;-6.43;88.87
56668;BME280;42542;48.360;10.958;2023-02-10T06:10:19;98062.41;;;-6.44;89.01
56668;BME280;42542;48.360;10.958;2023-02-10T06:13:20;98057.19;;;-6.45;88.87
56668;BME280;42542;48.360;10.958;2023-02-10T06:16:23;98066.75;;;-6.47;88.60
56668;BME280;42542;48.360;10.958;2023-02-10T06:19:25;98062.47;;;-6.50;88.56
56668;BME280;42542;48.360;10.958;2023-02-10T06:22:26;98064.22;;;-6.53;88.44
56668;BME280;42542;48.360;10.958;2023-02-10T06:25:28;98065.91;;;-6.49;88.84
56668;BME280;42542;48.360;10.958;2023-02-10T06:28:29;98072.81;;;-6.45;88.77
56668;BME280;42542;48.360;10.958;2023-02-10T06:31:32;98082.34;;;-6.46;88.71
56668;BME280;42542;48.360;10.958;2023-02-10T06:34:34;98084.97;;;-6.47;88.76
56668;BME280;42542;48.360;10.958;2023-02-10T06:37:35;98078.94;;;-6.51;88.67
56668;BME280;42542;48.360;10.958;2023-02-10T06:40:37;98097.97;;;-6.46;88.83
56668;BME280;42542;48.360;10.958;2023-02-10T06:43:39;98096.28;;;-6.50;88.53
56668;BME280;42542;48.360;10.958;2023-02-10T06:46:40;98108.38;;;-6.47;88.55
56668;BME280;42542;48.360;10.958;2023-02-10T06:49:42;98097.16;;;-6.51;88.99
56668;BME280;42542;48.360;10.958;2023-02-10T06:52:45;98106.63;;;-6.47;89.05
56668;BME280;42542;48.360;10.958;2023-02-10T06:55:47;98106.66;;;-6.48;88.91
56668;BME280;42542;48.360;10.958;2023-02-10T06:58:49;98109.22;;;-6.45;89.25
56668;BME280;42542;48.360;10.958;2023-02-10T07:01:51;98116.16;;;-6.43;89.26
56668;BME280;42542;48.360;10.958;2023-02-10T07:04:54;98119.56;;;-6.39;89.31
56668;BME280;42542;48.360;10.958;2023-02-10T07:07:56;98115.25;;;-6.39;89.91
56668;BME280;42542;48.360;10.958;2023-02-10T07:11:00;98118.66;;;-6.34;89.68
56668;BME280;42542;48.360;10.958;2023-02-10T07:14:02;98122.97;;;-6.29;89.73
56668;BME280;42542;48.360;10.958;2023-02-10T07:17:04;98131.63;;;-6.27;90.28
56668;BME280;42542;48.360;10.958;2023-02-10T07:20:05;98130.72;;;-6.26;90.39
56668;BME280;42542;48.360;10.958;2023-02-10T07:23:07;98135.88;;;-6.19;90.08
56668;BME280;42542;48.360;10.958;2023-02-10T07:26:09;98144.53;;;-6.15;90.59
56668;BME280;42542;48.360;10.958;2023-02-10T07:29:12;98138.41;;;-6.11;90.22
56668;BME280;42542;48.360;10.958;2023-02-10T07:32:13;98148.78;;;-6.05;90.58
56668;BME280;42542;48.360;10.958;2023-02-10T07:35:15;98140.06;;;-6.03;90.61
56668;BME280;42542;48.360;10.958;2023-02-10T07:38:16;98140.91;;;-5.99;90.71
56668;BME280;42542;48.360;10.958;2023-02-10T07:41:18;98147.81;;;-5.95;91.03
56668;BME280;42542;48.360;10.958;2023-02-10T07:44:20;98157.28;;;-5.89;90.90
56668;BME280;42542;48.360;10.958;2023-02-10T07:47:22;98160.69;;;-5.84;91.34
56668;BME280;42542;48.360;10.958;2023-02-10T07:50:24;98169.31;;;-5.76;91.33
56668;BME280;42542;48.360;10.958;2023-02-10T07:53:26;98163.19;;;-5.74;91.47
56668;BME280;42542;48.360;10.958;2023-02-10T07:56:27;98164.84;;;-5.65;92.05
56668;BME280;42542;48.360;10.958;2023-02-10T07:59:29;98161.31;;;-5.61;92.09
56668;BME280;42542;48.360;10.958;2023-02-10T08:02:31;98162.09;;;-5.55;91.85
56668;BME280;42542;48.360;10.958;2023-02-10T08:05:35;98160.31;;;-5.48;92.42
56668;BME280;42542;48.360;10.958;2023-02-10T08:08:38;98148.97;;;-5.45;91.92
56668;BME280;42542;48.360;10.958;2023-02-10T08:11:39;98154.09;;;-5.39;92.49
56668;BME280;42542;48.360;10.958;2023-02-10T08:14:41;98143.56;;;-5.30;92.60
56668;BME280;42542;48.360;10.958;2023-02-10T08:17:44;98150.44;;;-5.23;92.68
56668;BME280;42542;48.360;10.958;2023-02-10T08:20:46;98153.81;;;-5.17;92.94
56668;BME280;42542;48.360;10.958;2023-02-10T08:23:48;98153.72;;;-5.09;93.13
56668;BME280;42542;48.360;10.958;2023-02-10T08:26:56;98145.88;;;-5.04;93.63
56668;BME280;42542;48.360;10.958;2023-02-10T08:29:57;98145.78;;;-4.98;93.98
56668;BME280;42542;48.360;10.958;2023-02-10T08:32:59;98149.97;;;-4.87;94.73
56668;BME280;42542;48.360;10.958;2023-02-10T08:36:09;98149.84;;;-4.78;95.19
56668;BME280;42542;48.360;10.958;2023-02-10T08:39:12;98156.63;;;-4.67;95.40
56668;BME280;42542;48.360;10.958;2023-02-10T08:42:13;98141.75;;;-4.61;96.15
56668;BME280;42542;48.360;10.958;2023-02-10T08:45:15;98152.03;;;-4.49;96.14
56668;BME280;42542;48.360;10.958;2023-02-10T08:48:17;98147.50;;;-4.39;96.41
56668;BME280;42542;48.360;10.958;2023-02-10T08:51:19;98151.72;;;-4.30;96.58
56668;BME280;42542;48.360;10.958;2023-02-10T08:54:20;98150.69;;;-4.19;96.54
56668;BME280;42542;48.360;10.958;2023-02-10T08:57:22;98147.00;;;-4.09;96.73
56668;BME280;42542;48.360;10.958;2023-02-10T09:00:24;98159.91;;;-3.98;96.34
56668;BME280;42542;48.360;10.958;2023-02-10T09:03:26;98161.50;;;-3.91;96.34
56668;BME280;42542;48.360;10.958;2023-02-10T09:06:35;98167.41;;;-3.81;95.82
56668;BME280;42542;48.360;10.958;2023-02-10T09:09:41;98170.75;;;-3.72;96.19
56668;BME280;42542;48.360;10.958;2023-02-10T09:12:43;98173.97;;;-3.59;96.38
56668;BME280;42542;48.360;10.958;2023-02-10T09:15:45;98167.81;;;-3.55;95.58
56668;BME280;42542;48.360;10.958;2023-02-10T09:18:48;98172.72;;;-3.38;95.44
56668;BME280;42542;48.360;10.958;2023-02-10T09:21:49;98157.75;;;-3.30;95.08
56668;BME280;42542;48.360;10.958;2023-02-10T09:24:51;98170.50;;;-3.15;95.26
56668;BME280;42542;48.360;10.958;2023-02-10T09:27:53;98169.38;;;-3.02;94.71
56668;BME280;42542;48.360;10.958;2023-02-10T09:30:58;98177.78;;;-2.88;94.43
56668;BME280;42542;48.360;10.958;2023-02-10T09:33:59;98172.34;;;-2.77;94.11
56668;BME280;42542;48.360;10.958;2023-02-10T09:37:01;98173.75;;;-2.62;94.20
56668;BME280;42542;48.360;10.958;2023-02-10T09:40:04;98172.69;;;-2.52;93.58
56668;BME280;42542;48.360;10.958;2023-02-10T09:43:29;98177.59;;;-2.39;93.10
56668;BME280;42542;48.360;10.958;2023-02-10T09:53:24;98182.69;;;-1.97;91.89
56668;BME280;42542;48.360;10.958;2023-02-10T09:56:26;98182.53;;;-1.89;91.76
56668;BME280;42542;48.360;10.958;2023-02-10T09:59:28;98170.03;;;-1.80;91.26
56668;BME280;42542;48.360;10.958;2023-02-10T10:02:42;98172.31;;;-1.66;90.47
56668;BME280;42542;48.360;10.958;2023-02-10T10:05:58;98175.50;;;-1.55;90.43
56668;BME280;42542;48.360;10.958;2023-02-10T10:12:15;98180.25;;;-1.37;89.71
56668;BME280;42542;48.360;10.958;2023-02-10T10:15:22;98162.47;;;-1.26;89.21
56668;BME280;42542;48.360;10.958;2023-02-10T10:28:52;98153.44;;;-0.86;88.11
56668;BME280;42542;48.360;10.958;2023-02-10T10:32:15;98155.72;;;-0.74;87.15
56668;BME280;42542;48.360;10.958;2023-02-10T10:35:21;98154.59;;;-0.65;87.04
56668;BME280;42542;48.360;10.958;2023-02-10T10:38:35;98142.88;;;-0.55;87.03
56668;BME280;42542;48.360;10.958;2023-02-10T10:41:41;98150.56;;;-0.49;85.81
56668;BME280;42542;48.360;10.958;2023-02-10T10:44:47;98137.25;;;-0.43;84.42
56668;BME280;42542;48.360;10.958;2023-02-10T10:48:01;98137.78;;;-0.32;83.73
56668;BME280;42542;48.360;10.958;2023-02-10T10:51:08;98142.75;;;-0.23;82.33
56668;BME280;42542;48.360;10.958;2023-02-10T10:54:17;98125.94;;;-0.17;82.85
56668;BME280;42542;48.360;10.958;2023-02-10T10:57:20;98136.94;;;-0.06;82.51
56668;BME280;42542;48.360;10.958;2023-02-10T11:00:25;98127.06;;;0.00;82.72
56668;BME280;42542;48.360;10.958;2023-02-10T11:03:27;98124.31;;;0.05;82.07
56668;BME280;42542;48.360;10.958;2023-02-10T11:06:35;98121.53;;;0.10;81.22
56668;BME280;42542;48.360;10.958;2023-02-10T11:09:41;98122.16;;;0.16;80.78
56668;BME280;42542;48.360;10.958;2023-02-10T11:12:49;98119.28;;;0.24;80.71
56668;BME280;42542;48.360;10.958;2023-02-10T11:16:12;98114.72;;;0.29;80.34
56668;BME280;42542;48.360;10.958;2023-02-10T11:19:23;98104.00;;;0.35;78.83
56668;BME280;42542;48.360;10.958;2023-02-10T11:22:26;98099.44;;;0.40;79.02
56668;BME280;42542;48.360;10.958;2023-02-10T11:25:32;98099.16;;;0.48;77.62
56668;BME280;42542;48.360;10.958;2023-02-10T11:28:35;98103.28;;;0.55;78.04
56668;BME280;42542;48.360;10.958;2023-02-10T11:31:37;98090.88;;;0.58;77.85
56668;BME280;42542;48.360;10.958;2023-02-10T11:34:44;98079.22;;;0.65;77.40
56668;BME280;42542;48.360;10.958;2023-02-10T11:37:54;98085.00;;;0.75;76.39
56668;BME280;42542;48.360;10.958;2023-02-10T11:41:08;98068.94;;;0.83;75.53
56668;BME280;42542;48.360;10.958;2023-02-10T11:44:27;98075.75;;;0.88;74.96
56668;BME280;42542;48.360;10.958;2023-02-10T11:47:31;98064.00;;;0.97;74.03
56668;BME280;42542;48.360;10.958;2023-02-10T11:50:34;98055.81;;;1.04;74.09
56668;BME280;42542;48.360;10.958;2023-02-10T11:53:39;98052.88;;;1.12;73.99
56668;BME280;42542;48.360;10.958;2023-02-10T11:57:05;98050.00;;;1.18;73.80
56668;BME280;42542;48.360;10.958;2023-02-10T12:07:50;98040.41;;;1.39;70.82
56668;BME280;42542;48.360;10.958;2023-02-10T12:25:01;98032.03;;;1.93;68.67
56668;BME280;42542;48.360;10.958;2023-02-10T12:28:12;98046.66;;;2.00;69.40
56668;BME280;42542;48.360;10.958;2023-02-10T12:31:34;98046.41;;;2.06;68.57
56668;BME280;42542;48.360;10.958;2023-02-10T12:34:46;98039.09;;;2.13;67.49
56668;BME280;42542;48.360;10.958;2023-02-10T12:44:37;98027.22;;;2.23;66.87
56668;BME280;42542;48.360;10.958;2023-02-10T12:47:48;98028.78;;;2.27;66.17
56668;BME280;42542;48.360;10.958;2023-02-10T12:51:10;98030.28;;;2.32;65.14
56668;BME280;42542;48.360;10.958;2023-02-10T12:54:20;98023.97;;;2.37;66.11
56668;BME280;42542;48.360;10.958;2023-02-10T12:57:52;98025.31;;;2.45;65.86
56668;BME280;42542;48.360;10.958;2023-02-10T13:01:18;98019.88;;;2.50;65.75
56668;BME280;42542;48.360;10.958;2023-02-10T13:04:27;98019.66;;;2.54;65.83
56668;BME280;42542;48.360;10.958;2023-02-10T13:08:13;98021.16;;;2.60;64.83
56668;BME280;42542;48.360;10.958;2023-02-10T13:11:35;98015.53;;;2.67;65.04
56668;BME280;42542;48.360;10.958;2023-02-10T13:14:41;98010.06;;;2.72;65.81
56668;BME280;42542;48.360;10.958;2023-02-10T13:17:46;98007.91;;;2.80;65.72
56668;BME280;42542;48.360;10.958;2023-02-10T13:20:58;98014.81;;;2.83;64.60
56668;BME280;42542;48.360;10.958;2023-02-10T13:34:32;98007.06;;;2.98;64.55
56668;BME280;42542;48.360;10.958;2023-02-10T13:37:47;98008.69;;;3.01;64.77
56668;BME280;42542;48.360;10.958;2023-02-10T13:40:54;98011.19;;;3.04;63.10
56668;BME280;42542;48.360;10.958;2023-02-10T13:44:32;98003.19;;;3.05;63.03
56668;BME280;42542;48.360;10.958;2023-02-10T13:50:51;98013.41;;;3.13;61.92
56668;BME280;42542;48.360;10.958;2023-02-10T13:53:55;98014.13;;;3.17;61.69
56668;BME280;42542;48.360;10.958;2023-02-10T13:56:58;98008.75;;;3.18;62.48
56668;BME280;42542;48.360;10.958;2023-02-10T14:00:18;98005.03;;;3.22;61.73
56668;BME280;42542;48.360;10.958;2023-02-10T14:03:24;98001.38;;;3.25;62.23
56668;BME280;42542;48.360;10.958;2023-02-10T14:06:37;97996.81;;;3.28;62.30
56668;BME280;42542;48.360;10.958;2023-02-10T14:09:40;98012.53;;;3.31;61.56
56668;BME280;42542;48.360;10.958;2023-02-10T14:12:54;97995.03;;;3.29;60.49
56668;BME280;42542;48.360;10.958;2023-02-10T14:16:28;98001.81;;;3.34;60.35
56668;BME280;42542;48.360;10.958;2023-02-10T14:19:32;98006.16;;;3.35;61.12
56668;BME280;42542;48.360;10.958;2023-02-10T14:22:36;97994.03;;;3.31;60.51
56668;BME280;42542;48.360;10.958;2023-02-10T14:25:41;98004.31;;;3.37;59.30
56668;BME280;42542;48.360;10.958;2023-02-10T14:28:48;98007.03;;;3.36;58.64
56668;BME280;42542;48.360;10.958;2023-02-10T14:31:53;97993.63;;;3.39;59.61
56668;BME280;42542;48.360;10.958;2023-02-10T14:35:03;97997.13;;;3.39;60.06
56668;BME280;42542;48.360;10.958;2023-02-10T14:38:20;98001.50;;;3.40;59.24
56668;BME280;42542;48.360;10.958;2023-02-10T14:41:23;97998.78;;;3.42;60.75
56668;BME280;42542;48.360;10.958;2023-02-10T14:44:34;97998.84;;;3.40;62.31
56668;BME280;42542;48.360;10.958;2023-02-10T14:47:38;97994.59;;;3.38;63.33
56668;BME280;42542;48.360;10.958;2023-02-10T14:50:43;97985.25;;;3.31;64.13
56668;BME280;42542;48.360;10.958;2023-02-10T14:53:48;97987.19;;;3.27;64.12
56668;BME280;42542;48.360;10.958;2023-02-10T14:56:55;98001.97;;;3.31;64.01
56668;BME280;42542;48.360;10.958;2023-02-10T15:00:00;98003.81;;;3.29;64.24
56668;BME280;42542;48.360;10.958;2023-02-10T15:03:03;98002.16;;;3.27;64.01
56668;BME280;42542;48.360;10.958;2023-02-10T15:06:06;98010.16;;;3.25;64.84
56668;BME280;42542;48.360;10.958;2023-02-10T15:09:22;98001.53;;;3.22;65.07
56668;BME280;42542;48.360;10.958;2023-02-10T15:12:25;97999.09;;;3.17;65.50
56668;BME280;42542;48.360;10.958;2023-02-10T15:15:30;98014.25;;;3.13;65.42
56668;BME280;42542;48.360;10.958;2023-02-10T15:18:39;98007.47;;;3.08;65.60
56668;BME280;42542;48.360;10.958;2023-02-10T15:21:42;98014.69;;;3.04;65.80
56668;BME280;42542;48.360;10.958;2023-02-10T15:24:44;98020.13;;;3.01;65.64
56668;BME280;42542;48.360;10.958;2023-02-10T15:27:46;98022.91;;;2.98;66.42
56668;BME280;42542;48.360;10.958;2023-02-10T15:31:02;98030.13;;;2.95;66.28
56668;BME280;42542;48.360;10.958;2023-02-10T15:34:20;98024.13;;;2.91;67.04
56668;BME280;42542;48.360;10.958;2023-02-10T15:37:26;98022.56;;;2.87;66.41
56668;BME280;42542;48.360;10.958;2023-02-10T15:40:33;98009.53;;;2.83;67.27
56668;BME280;42542;48.360;10.958;2023-02-10T15:43:36;98022.97;;;2.78;66.95
56668;BME280;42542;48.360;10.958;2023-02-10T15:46:40;98021.31;;;2.75;67.10
56668;BME280;42542;48.360;10.958;2023-02-10T15:49:47;98025.03;;;2.71;67.39
56668;BME280;42542;48.360;10.958;2023-02-10T15:52:49;98032.16;;;2.69;67.37
56668;BME280;42542;48.360;10.958;2023-02-10T15:55:51;98029.81;;;2.63;67.36
56668;BME280;42542;48.360;10.958;2023-02-10T15:58:54;98026.56;;;2.57;67.77
56668;BME280;42542;48.360;10.958;2023-02-10T16:02:03;98025.84;;;2.53;67.94
56668;BME280;42542;48.360;10.958;2023-02-10T16:05:05;98024.41;;;2.46;68.04
56668;BME280;42542;48.360;10.958;2023-02-10T16:08:21;98035.19;;;2.42;67.95
56668;BME280;42542;48.360;10.958;2023-02-10T16:11:24;98045.00;;;2.38;67.91
56668;BME280;42542;48.360;10.958;2023-02-10T16:14:29;98034.94;;;2.27;68.96
56668;BME280;42542;48.360;10.958;2023-02-10T16:17:37;98041.34;;;2.22;69.26
56668;BME280;42542;48.360;10.958;2023-02-10T16:20:40;98051.28;;;2.15;69.07
56668;BME280;42542;48.360;10.958;2023-02-10T16:23:42;98041.19;;;2.05;68.59
56668;BME280;42542;48.360;10.958;2023-02-10T16:26:45;98052.91;;;1.98;67.97
56668;BME280;42542;48.360;10.958;2023-02-10T16:29:46;98064.44;;;1.95;68.05
56668;BME280;42542;48.360;10.958;2023-02-10T16:32:49;98047.16;;;1.88;69.27
56668;BME280;42542;48.360;10.958;2023-02-10T16:35:52;98061.50;;;1.81;69.19
56668;BME280;42542;48.360;10.958;2023-02-10T16:38:55;98053.41;;;1.65;69.15
56668;BME280;42542;48.360;10.958;2023-02-10T16:42:03;98064.16;;;1.59;69.54
56668;BME280;42542;48.360;10.958;2023-02-10T16:45:05;98068.13;;;1.49;69.86
56668;BME280;42542;48.360;10.958;2023-02-10T16:48:09;98077.22;;;1.40;69.80
56668;BME280;42542;48.360;10.958;2023-02-10T16:51:14;98068.09;;;1.27;70.52
56668;BME280;42542;48.360;10.958;2023-02-10T16:54:16;98079.03;;;1.16;70.69
56668;BME280;42542;48.360;10.958;2023-02-10T16:57:18;98067.25;;;1.03;70.83
56668;BME280;42542;48.360;10.958;2023-02-10T17:00:20;98079.19;;;0.90;71.77
56668;BME280;42542;48.360;10.958;2023-02-10T17:03:22;98071.78;;;0.76;71.65
56668;BME280;42542;48.360;10.958;2023-02-10T17:06:25;98080.16;;;0.64;72.31
56668;BME280;42542;48.360;10.958;2023-02-10T17:09:27;98071.81;;;0.52;72.66
56668;BME280;42542;48.360;10.958;2023-02-10T17:12:29;98074.00;;;0.41;72.50
56668;BME280;42542;48.360;10.958;2023-02-10T17:15:34;98082.31;;;0.28;73.72
56668;BME280;42542;48.360;10.958;2023-02-10T17:18:36;98086.16;;;0.18;73.98
56668;BME280;42542;48.360;10.958;2023-02-10T17:21:38;98083.00;;;0.09;74.24
56668;BME280;42542;48.360;10.958;2023-02-10T17:24:40;98076.56;;;-0.08;74.94
56668;BME280;42542;48.360;10.958;2023-02-10T17:27:42;98065.56;;;-0.20;74.46
56668;BME280;42542;48.360;10.958;2023-02-10T17:30:44;98091.81;;;-0.19;75.33
56668;BME280;42542;48.360;10.958;2023-02-10T17:33:48;98086.81;;;-0.26;76.16